Flight Track Log - Related Links

Times and Time Zones

All times are in EDT time to prevent confusion due to time zone crossing. See the UAL33 flight status page for this flight to view local times or setup timezone preferences in your user account.

Time Position Orientation Groundspeed Altitude Reporting Facility
EDT Latitude Longitude Course Direction KTS MPH feet Rate Location/Type
Tue 03:02:22 PM 33.9330 -118.4500 263° West 209 241 1,600  Level FlightAware ADS-B
Tue 03:02:47 PM 33.9290 -118.4760 260° West 228 262 2,300 2,400 Climbing FlightAware ADS-B
Tue 03:03:17 PM 33.9170 -118.5130 249° West 237 273 3,800 3,000 Climbing FlightAware ADS-B
Tue 03:03:27 PM 33.9120 -118.5270 247° West 243 280 4,300 3,200 Climbing FlightAware ADS-B
Tue 03:03:47 PM 33.8950 -118.5570 236° Southwest 266 306 5,400 3,000 Climbing FlightAware ADS-B
Tue 03:03:57 PM 33.8820 -118.5640 204° Southwest 279 321 5,800 2,100 Climbing FlightAware ADS-B
Tue 03:04:07 PM 33.8710 -118.5660 189° South 287 330 6,100 2,600 Climbing FlightAware ADS-B
Tue 03:04:27 PM 33.8430 -118.5530 159° South 302 348 7,100 2,914 Climbing FlightAware ADS-B
Tue 03:04:42 PM 33.8290 -118.5330 130° Southeast 305 351 7,800 2,880 Climbing FlightAware ADS-B
Tue 03:04:52 PM 33.8250 -118.5170 107° East 304 350 8,300 2,850 Climbing FlightAware ADS-B
Tue 03:05:22 PM 33.8350 -118.4700 76° East 296 341 9,700 2,800 Climbing FlightAware ADS-B
Tue 03:05:37 PM 33.8500 -118.4540 42° Northeast 294 338 10,400 2,000 Climbing FlightAware ADS-B
Tue 03:05:52 PM 33.8680 -118.4420 29° Northeast 306 352 10,700 1,200 Climbing FlightAware ADS-B
Tue 03:06:07 PM 33.8880 -118.4370 12° North 320 368 11,000 1,350 Climbing FlightAware ADS-B
Tue 03:06:32 PM 33.9280 -118.4270 12° North 348 400 11,600 1,650 Climbing FlightAware ADS-B
Tue 03:06:47 PM 33.9460 -118.4110 36° Northeast 356 410 12,100 2,291 Climbing FlightAware ADS-B
Tue 03:07:27 PM 33.9860 -118.3470 53° Northeast 369 425 13,700 2,400 Climbing FlightAware ADS-B
Tue 03:08:12 PM 34.0290 -118.2690 56° Northeast 379 436 15,500 2,471 Climbing FlightAware ADS-B
Tue 03:08:52 PM 34.0710 -118.1950 56° Northeast 386 444 17,200 2,329 Climbing FlightAware ADS-B
Tue 03:09:37 PM 34.1150 -118.1170 56° Northeast 398 458 18,800 2,047 Climbing FlightAware ADS-B
Tue 03:10:17 PM 34.1580 -118.0410 56° Northeast 412 474 20,100 2,025 Climbing FlightAware ADS-B
Tue 03:10:57 PM 34.2010 -117.9660 55° Northeast 419 482 21,500 2,118 Climbing FlightAware ADS-B
Tue 03:11:42 PM 34.2520 -117.8740 56° Northeast 427 491 23,100 2,047 Climbing FlightAware ADS-B
Tue 03:12:22 PM 34.2960 -117.7960 56° Northeast 432 497 24,400 1,875 Climbing FlightAware ADS-B
Tue 03:13:02 PM 34.3410 -117.7150 56° Northeast 437 503 25,600 1,765 Climbing FlightAware ADS-B
Tue 03:13:47 PM 34.3910 -117.6260 56° Northeast 444 511 26,900 1,765 Climbing FlightAware ADS-B
Tue 03:14:27 PM 34.4380 -117.5420 56° Northeast 448 516 28,100 1,482 Climbing FlightAware ADS-B
Tue 03:15:12 PM 34.4910 -117.4470 56° Northeast 456 525 29,000 635 Climbing FlightAware ADS-B
Tue 03:15:52 PM 34.5390 -117.3600 56° Northeast 459 528 29,000  Level FlightAware ADS-B
Tue 03:16:32 PM 34.5860 -117.2760 56° Northeast 455 524 29,000  Level FlightAware ADS-B
Tue 03:17:17 PM 34.6370 -117.1830 56° Northeast 455 524 29,000 565 Level FlightAware ADS-B
Tue 03:17:57 PM 34.6840 -117.0980 56° Northeast 457 526 29,800 1,200 Climbing FlightAware ADS-B
Tue 03:18:42 PM 34.7370 -117.0010 56° Northeast 466 536 30,700 1,412 Climbing FlightAware ADS-B
Tue 03:19:22 PM 34.7860 -116.9110 56° Northeast 465 535 31,800 1,694 Climbing FlightAware ADS-B
Tue 03:20:07 PM 34.8390 -116.8140 56° Northeast 462 532 33,100 1,624 Climbing FlightAware ADS-B
Tue 03:20:47 PM 34.8840 -116.7250 58° Northeast 459 528 34,100 1,425 Climbing FlightAware ADS-B
Tue 03:21:27 PM 34.9310 -116.6380 57° Northeast 457 526 35,000 1,412 Climbing FlightAware ADS-B
Tue 03:22:12 PM 34.9880 -116.5500 52° Northeast 453 521 36,100 1,341 Climbing FlightAware ADS-B
Tue 03:22:52 PM 35.0460 -116.4760 46° Northeast 451 519 36,900 635 Climbing FlightAware ADS-B
Tue 03:23:37 PM 35.1130 -116.3930 45° Northeast 450 518 37,000 71 Climbing FlightAware ADS-B
Tue 03:24:17 PM 35.1720 -116.3200 45° Northeast 450 518 37,000  Level FlightAware ADS-B
Tue 03:24:57 PM 35.2290 -116.2490 45° Northeast 453 521 37,000  Level FlightAware ADS-B
Tue 03:25:42 PM 35.2940 -116.1670 46° Northeast 454 522 37,000  Level FlightAware ADS-B
Tue 03:26:22 PM 35.3530 -116.0920 46° Northeast 456 525 37,000  Level FlightAware ADS-B
Tue 03:27:07 PM 35.4220 -116.0060 45° Northeast 458 527 37,000  Level FlightAware ADS-B
Tue 03:27:47 PM 35.4800 -115.9330 46° Northeast 458 527 37,000  Level FlightAware ADS-B
Tue 03:28:27 PM 35.5400 -115.8560 46° Northeast 458 527 37,000  Level FlightAware ADS-B
Tue 03:29:12 PM 35.6040 -115.7760 45° Northeast 459 528 37,000  Level FlightAware ADS-B
Tue 03:29:52 PM 35.6640 -115.7000 46° Northeast 459 528 37,000  Level FlightAware ADS-B
Tue 03:30:37 PM 35.7320 -115.6130 46° Northeast 460 529 37,000  Level FlightAware ADS-B
Tue 03:31:17 PM 35.7890 -115.5410 46° Northeast 461 531 37,000  Level FlightAware ADS-B
Tue 03:31:57 PM 35.8490 -115.4630 46° Northeast 461 531 37,000  Level FlightAware ADS-B
Tue 03:32:42 PM 35.9140 -115.3800 46° Northeast 463 533 37,000  Level FlightAware ADS-B
Tue 03:33:22 PM 35.9750 -115.3020 46° Northeast 461 531 37,000  Level FlightAware ADS-B
Tue 03:34:07 PM 36.0410 -115.2170 46° Northeast 463 533 37,000  Level FlightAware ADS-B
Tue 03:34:42 PM 36.0870 -115.1430 52° Northeast 469 540 37,000  Level FlightAware ADS-B
Tue 03:35:22 PM 36.1200 -115.0500 66° East 472 543 37,000  Level FlightAware ADS-B
Tue 03:36:02 PM 36.1530 -114.9430 69° East 475 547 37,000  Level FlightAware ADS-B
Tue 03:36:47 PM 36.1890 -114.8260 69° East 476 548 37,000  Level FlightAware ADS-B
Tue 03:37:27 PM 36.2200 -114.7250 69° East 476 548 37,000  Level FlightAware ADS-B
Tue 03:38:07 PM 36.2510 -114.6230 69° East 475 547 37,000  Level FlightAware ADS-B
Tue 03:38:52 PM 36.2860 -114.5100 69° East 475 547 37,000  Level FlightAware ADS-B
Tue 03:39:32 PM 36.3160 -114.4100 70° East 474 545 37,000  Level FlightAware ADS-B
Tue 03:40:17 PM 36.3520 -114.2920 69° East 474 545 37,000  Level FlightAware ADS-B
Tue 03:40:57 PM 36.3830 -114.1900 69° East 474 545 37,000  Level FlightAware ADS-B
Tue 03:41:42 PM 36.4170 -114.0780 69° East 474 545 37,000  Level FlightAware ADS-B
Tue 03:42:22 PM 36.4470 -113.9760 70° East 474 545 37,000  Level FlightAware ADS-B
Tue 03:43:02 PM 36.4770 -113.8750 70° East 474 545 37,000  Level FlightAware ADS-B
Tue 03:43:47 PM 36.5120 -113.7590 69° East 474 545 37,000  Level FlightAware ADS-B
Tue 03:44:27 PM 36.5420 -113.6560 70° East 476 548 37,000  Level FlightAware ADS-B
Tue 03:45:07 PM 36.5730 -113.5540 69° East 478 550 37,000  Level FlightAware ADS-B
Tue 03:45:52 PM 36.6060 -113.4400 70° East 478 550 37,000  Level FlightAware ADS-B
Tue 03:46:32 PM 36.6360 -113.3370 70° East 477 549 37,000  Level FlightAware ADS-B
Tue 03:47:17 PM 36.6710 -113.2170 70° East 477 549 37,000  Level FlightAware ADS-B
Tue 03:47:57 PM 36.7000 -113.1190 70° East 479 551 37,000  Level FlightAware ADS-B
Tue 03:48:42 PM 36.7330 -113.0020 71° East 480 552 37,000  Level FlightAware ADS-B
Tue 03:49:22 PM 36.7630 -112.8980 70° East 479 551 37,000  Level FlightAware ADS-B
Tue 03:50:02 PM 36.7930 -112.7950 70° East 481 554 37,000  Level FlightAware ADS-B
Tue 03:50:47 PM 36.8280 -112.6700 71° East 484 557 37,000  Level FlightAware ADS-B
Tue 03:51:27 PM 36.8570 -112.5670 71° East 486 559 37,000  Level FlightAware ADS-B
Tue 03:52:12 PM 36.8880 -112.4610 70° East 487 560 37,000  Level FlightAware ADS-B
Tue 03:52:52 PM 36.9140 -112.3710 70° East 487 560 37,000  Level FlightAware ADS-B
Tue 03:53:32 PM 36.9410 -112.2800 70° East 487 560 37,000  Level FlightAware ADS-B
Tue 03:54:12 PM 36.9670 -112.1900 70° East 487 560 37,000  Level FlightAware ADS-B
Tue 03:54:52 PM 36.9930 -112.1000 70° East 487 560 37,000  Level FlightAware ADS-B
Tue 03:55:42 PM 37.0260 -111.9880 70° East 487 560 37,000  Level FlightAware ADS-B
Tue 03:56:22 PM 37.0520 -111.8970 70° East 487 560 37,000  Level FlightAware ADS-B
Tue 03:57:02 PM 37.0780 -111.8070 70° East 487 560 37,000  Level FlightAware ADS-B
Tue 03:57:42 PM 37.1040 -111.7170 70° East 487 560 37,000  Level FlightAware ADS-B
Tue 03:58:22 PM 37.1300 -111.6270 70° East 487 560 37,000  Level FlightAware ADS-B
Tue 03:59:12 PM 37.1630 -111.5140 70° East 487 560 37,000  Level FlightAware ADS-B
Tue 03:59:52 PM 37.1890 -111.4230 70° East 487 560 37,000  Level FlightAware ADS-B
Tue 04:00:32 PM 37.2160 -111.3330 69° East 487 560 37,000  Level FlightAware ADS-B
Tue 04:01:02 PM 37.2350 -111.2650 71° East 487 560 37,000  Level FlightAware ADS-B
Tue 04:01:38 PM 37.2906 -110.9567 71° East 492 566 37,000  Level Denver Center
Tue 04:02:39 PM 37.3336 -110.7944 71° East 492 566 37,000  Level Denver Center
Tue 04:03:41 PM 37.3772 -110.6308 71° East 494 568 37,000  Level Denver Center
Tue 04:04:43 PM 37.4286 -110.4358 72° East 491 565 37,000  Level Denver Center
Tue 04:05:44 PM 37.4697 -110.2725 72° East 492 566 37,000  Level Denver Center
Tue 04:06:46 PM 37.5100 -110.1150 72° East 493 567 37,000  Level Denver Center
Tue 04:07:48 PM 37.5572 -109.9322 72° East 490 564 37,000  Level Denver Center
Tue 04:08:50 PM 37.5983 -109.7750 72° East 493 567 37,000  Level Denver Center
Tue 04:09:51 PM 37.6442 -109.5917 72° East 491 565 37,000  Level Denver Center
Tue 04:10:53 PM 37.6836 -109.4336 72° East 492 566 37,000  Level Denver Center
Tue 04:11:55 PM 37.7231 -109.2756 72° East 492 566 37,000  Level Denver Center
Tue 04:12:56 PM 37.7689 -109.0914 72° East 492 566 37,000  Level Denver Center
Tue 04:13:58 PM 37.8078 -108.9322 73° East 494 568 37,000  Level Denver Center
Tue 04:20:12 PM 38.0350 -107.8730 73° East 492 566 37,000  Level FlightAware ADS-B
Tue 04:20:57 PM 38.0600 -107.7490 76° East 493 567 37,000  Level FlightAware ADS-B
Tue 04:21:37 PM 38.0840 -107.6300 76° East 496 571 37,000  Level FlightAware ADS-B
Tue 04:22:17 PM 38.1050 -107.5280 75° East 496 571 37,000  Level FlightAware ADS-B
Tue 04:23:02 PM 38.1310 -107.3970 76° East 495 570 37,000  Level FlightAware ADS-B
Tue 04:23:42 PM 38.1560 -107.2750 75° East 497 572 37,000  Level FlightAware ADS-B
Tue 04:24:37 PM 38.1850 -107.1280 76° East 496 571 37,000  Level FlightAware ADS-B
Tue 04:25:22 PM 38.2100 -106.9970 76° East 496 571 37,000  Level FlightAware ADS-B
Tue 04:25:44 PM 38.2247 -106.9250 75° East 497 572 37,000  Level FlightAware ADS-B
Tue 04:26:14 PM 38.2414 -106.8390 76° East 496 571 37,000  Level FlightAware ADS-B
Tue 04:27:00 PM 38.2666 -106.7100 76° East 500 575 37,000  Level FlightAware ADS-B
Tue 04:27:30 PM 38.2834 -106.6230 76° East 498 573 37,000  Level FlightAware ADS-B
Tue 04:28:08 PM 38.3043 -106.5140 76° East 497 572 37,000  Level FlightAware ADS-B
Tue 04:28:46 PM 38.3244 -106.4090 76° East 497 572 37,000  Level FlightAware ADS-B
Tue 04:29:29 PM 38.3481 -106.2850 76° East 497 572 37,000  Level FlightAware ADS-B
Tue 04:30:06 PM 38.3675 -106.1830 76° East 495 570 37,000  Level FlightAware ADS-B
Tue 04:30:40 PM 38.3859 -106.0860 76° East 494 568 37,000  Level FlightAware ADS-B
Tue 04:31:10 PM 38.4020 -106.0000 77° East 496 571 37,000  Level FlightAware ADS-B
Tue 04:31:41 PM 38.4187 -105.9110 77° East 494 568 37,000  Level FlightAware ADS-B
Tue 04:32:12 PM 38.4348 -105.8250 77° East 495 570 37,000  Level FlightAware ADS-B
Tue 04:32:42 PM 38.4509 -105.7380 77° East 497 572 37,000  Level FlightAware ADS-B
Tue 04:33:14 PM 38.4672 -105.6500 77° East 495 570 37,000  Level FlightAware ADS-B
Tue 04:33:44 PM 38.4831 -105.5640 77° East 496 571 37,000  Level FlightAware ADS-B
Tue 04:34:14 PM 38.4990 -105.4770 77° East 496 571 37,000  Level FlightAware ADS-B
Tue 04:34:45 PM 38.5148 -105.3910 77° East 495 570 37,000  Level FlightAware ADS-B
Tue 04:35:15 PM 38.5304 -105.3050 77° East 495 570 37,000  Level FlightAware ADS-B
Tue 04:35:46 PM 38.5462 -105.2170 77° East 493 567 37,000  Level FlightAware ADS-B
Tue 04:36:18 PM 38.5625 -105.1270 77° East 496 571 37,000  Level FlightAware ADS-B
Tue 04:36:52 PM 38.5800 -105.0300 77° East 495 570 37,000  Level FlightAware ADS-B
Tue 04:37:22 PM 38.5955 -104.9430 77° East 495 570 37,000  Level FlightAware ADS-B
Tue 04:37:54 PM 38.6113 -104.8540 77° East 495 570 37,000  Level FlightAware ADS-B
Tue 04:38:33 PM 38.6310 -104.7420 77° East 496 571 37,000  Level FlightAware ADS-B
Tue 04:39:18 PM 38.6535 -104.6140 77° East 493 567 37,000  Level FlightAware ADS-B
Tue 04:39:55 PM 38.6719 -104.5090 77° East 491 565 37,000  Level FlightAware ADS-B
Tue 04:40:26 PM 38.6871 -104.4210 77° East 491 565 37,000  Level FlightAware ADS-B
Tue 04:40:59 PM 38.7031 -104.3280 78° East 488 562 37,000  Level FlightAware ADS-B
Tue 04:41:29 PM 38.7177 -104.2430 78° East 487 560 37,000  Level FlightAware ADS-B
Tue 04:41:59 PM 38.7323 -104.1590 77° East 485 558 37,000  Level FlightAware ADS-B
Tue 04:42:30 PM 38.7470 -104.0720 78° East 483 556 37,000  Level FlightAware ADS-B
Tue 04:43:00 PM 38.7613 -103.9880 78° East 489 563 37,000  Level FlightAware ADS-B
Tue 04:43:32 PM 38.7767 -103.8970 78° East 493 567 37,000  Level FlightAware ADS-B
Tue 04:44:03 PM 38.7912 -103.8100 78° East 495 570 37,000  Level FlightAware ADS-B
Tue 04:44:33 PM 38.8058 -103.7240 78° East 498 573 37,000  Level FlightAware ADS-B
Tue 04:44:54 PM 38.8153 -103.6630 79° East 499 574 37,000  Level FlightAware ADS-B
Tue 04:45:16 PM 38.8221 -103.5980 82° East 499 574 37,000  Level FlightAware ADS-B
Tue 04:45:47 PM 38.8262 -103.5080 87° East 501 577 37,000  Level FlightAware ADS-B
Tue 04:46:17 PM 38.8286 -103.4190 88° East 500 575 37,000  Level FlightAware ADS-B
Tue 04:46:47 PM 38.8307 -103.3290 88° East 501 577 37,000  Level FlightAware ADS-B
Tue 04:47:17 PM 38.8326 -103.2400 88° East 503 579 37,000  Level FlightAware ADS-B
Tue 04:47:48 PM 38.8346 -103.1480 88° East 501 577 37,000  Level FlightAware ADS-B
Tue 04:48:18 PM 38.8365 -103.0590 88° East 501 577 37,000  Level FlightAware ADS-B
Tue 04:48:49 PM 38.8385 -102.9670 88° East 499 574 37,000  Level FlightAware ADS-B
Tue 04:49:20 PM 38.8404 -102.8770 88° East 496 571 37,000  Level FlightAware ADS-B
Tue 04:49:50 PM 38.8423 -102.7880 88° East 496 571 37,000  Level FlightAware ADS-B
Tue 04:50:20 PM 38.8440 -102.7000 89° East 494 568 37,000  Level FlightAware ADS-B
Tue 04:50:51 PM 38.8456 -102.6100 89° East 492 566 37,000  Level FlightAware ADS-B
Tue 04:51:22 PM 38.8473 -102.5190 89° East 489 563 37,000  Level FlightAware ADS-B
Tue 04:51:54 PM 38.8489 -102.4280 89° East 486 559 37,000  Level FlightAware ADS-B
Tue 04:52:25 PM 38.8504 -102.3400 89° East 484 557 37,000  Level FlightAware ADS-B
Tue 04:52:55 PM 38.8518 -102.2530 89° East 483 556 37,000  Level FlightAware ADS-B
Tue 04:53:26 PM 38.8530 -102.1650 89° East 481 554 37,000  Level FlightAware ADS-B
Tue 04:53:56 PM 38.8542 -102.0800 89° East 480 552 37,000  Level FlightAware ADS-B
Tue 04:54:26 PM 38.8554 -101.9940 89° East 480 552 37,000  Level FlightAware ADS-B
Tue 04:54:57 PM 38.8566 -101.9060 89° East 480 552 37,000  Level FlightAware ADS-B
Tue 04:55:27 PM 38.8576 -101.8190 89° East 480 552 37,000  Level FlightAware ADS-B
Tue 04:55:58 PM 38.8585 -101.7340 89° East 478 550 37,000  Level FlightAware ADS-B
Tue 04:56:28 PM 38.8595 -101.6480 89° East 474 545 37,000  Level FlightAware ADS-B
Tue 04:56:58 PM 38.8603 -101.5630 89° East 473 544 37,000  Level FlightAware ADS-B
Tue 04:57:29 PM 38.8611 -101.4780 89° East 474 545 37,000  Level FlightAware ADS-B
Tue 04:58:04 PM 38.8619 -101.3780 89° East 474 545 37,000  Level FlightAware ADS-B
Tue 04:58:23 PM 38.8525 -101.3392 89° East 474 545 37,000  Level Kansas City Center
Tue 04:59:24 PM 38.8539 -101.1808 89° East 472 543 37,000  Level Denver Center
Tue 05:00:26 PM 38.8547 -101.0194 90° East 472 543 37,000  Level Denver Center
Tue 05:01:27 PM 38.8544 -100.8294 90° East 475 547 37,000  Level Denver Center
Tue 05:02:29 PM 38.8558 -100.6686 89° East 473 544 37,000  Level Denver Center
Tue 05:03:31 PM 38.8544 -100.4775 90° East 477 549 37,000  Level Denver Center
Tue 05:04:33 PM 38.8553 -100.3156 90° East 474 545 37,000  Level Denver Center
Tue 05:05:34 PM 38.8542 -100.1258 90° East 474 545 37,000  Level Denver Center
Tue 05:06:36 PM 38.8542 -99.9658 90° East 471 542 37,000  Level Denver Center
Tue 05:07:38 PM 38.8539 -99.8044 90° East 472 543 37,000  Level Denver Center
Tue 05:08:40 PM 38.8522 -99.6178 91° East 470 541 37,000  Level Denver Center
Tue 05:09:42 PM 38.8500 -99.4564 91° East 470 541 37,000  Level Denver Center
Tue 05:10:48 PM 38.8469 -99.2831 91° East 465 535 37,000  Level Kansas City Center
Tue 05:11:50 PM 38.8550 -99.1169 86° East 466 536 37,000  Level Kansas City Center
Tue 05:12:52 PM 38.8661 -98.9211 86° East 458 527 37,000  Level Kansas City Center
Tue 05:13:54 PM 38.8747 -98.7586 86° East 455 524 37,000  Level Kansas City Center
Tue 05:14:56 PM 38.8825 -98.5967 86° East 454 522 37,000  Level Kansas City Center
Tue 05:15:58 PM 38.8897 -98.4333 87° East 456 525 37,000  Level Kansas City Center
Tue 05:21:12 PM 38.9450 -97.5580 87° East 462 532 37,000  Level FlightAware ADS-B
Tue 05:22:17 PM 38.9690 -97.3840 80° East 463 533 37,000  Level FlightAware ADS-B
Tue 05:22:57 PM 38.9830 -97.2920 79° East 463 533 37,000  Level FlightAware ADS-B
Tue 05:23:37 PM 38.9970 -97.2000 79° East 463 533 37,000  Level FlightAware ADS-B
Tue 05:24:17 PM 39.0110 -97.1080 79° East 463 533 37,000  Level FlightAware ADS-B
Tue 05:25:07 PM 39.0290 -96.9930 79° East 463 533 37,000  Level FlightAware ADS-B
Tue 05:25:47 PM 39.0420 -96.9010 80° East 463 533 37,000  Level FlightAware ADS-B
Tue 05:26:27 PM 39.0560 -96.8090 79° East 463 533 37,000  Level FlightAware ADS-B
Tue 05:27:07 PM 39.0700 -96.7170 79° East 463 533 37,000  Level FlightAware ADS-B
Tue 05:27:47 PM 39.0840 -96.6250 79° East 463 533 37,000  Level FlightAware ADS-B
Tue 05:28:37 PM 39.1010 -96.5100 79° East 463 533 37,000  Level FlightAware ADS-B
Tue 05:29:17 PM 39.1150 -96.4180 79° East 463 533 37,000  Level FlightAware ADS-B
Tue 05:30:02 PM 39.1340 -96.1140 85° East 461 531 37,000  Level FlightAware ADS-B
Tue 05:30:42 PM 39.1470 -96.0040 81° East 462 532 37,000  Level FlightAware ADS-B
Tue 05:31:22 PM 39.1600 -95.8960 81° East 461 531 37,000  Level FlightAware ADS-B
Tue 05:32:30 PM 39.1689 -95.7378 81° East 465 535 37,000  Level Kansas City Center
Tue 05:33:32 PM 39.1903 -95.5567 81° East 461 531 37,000  Level Kansas City Center
Tue 05:34:35 PM 39.2106 -95.3864 81° East 457 526 37,000  Level Kansas City Center
Tue 05:40:12 PM 39.3310 -94.4710 81° East 454 522 37,000  Level FlightAware ADS-B
Tue 05:40:57 PM 39.3470 -94.3520 80° East 454 522 37,000  Level FlightAware ADS-B
Tue 05:41:37 PM 39.3600 -94.2450 81° East 452 520 37,000  Level FlightAware ADS-B
Tue 05:42:17 PM 39.3730 -94.1400 81° East 453 521 37,000  Level FlightAware ADS-B
Tue 05:43:02 PM 39.3890 -94.0180 80° East 453 521 37,000  Level FlightAware ADS-B
Tue 05:43:42 PM 39.4020 -93.9110 81° East 454 522 37,000  Level FlightAware ADS-B
Tue 05:44:27 PM 39.4170 -93.7910 81° East 454 522 37,000  Level FlightAware ADS-B
Tue 05:45:07 PM 39.4300 -93.6850 81° East 454 522 37,000  Level FlightAware ADS-B
Tue 05:45:47 PM 39.4440 -93.5770 80° East 454 522 37,000  Level FlightAware ADS-B
Tue 05:46:32 PM 39.4590 -93.4550 81° East 454 522 37,000  Level FlightAware ADS-B
Tue 05:47:12 PM 39.4720 -93.3460 81° East 453 521 37,000  Level FlightAware ADS-B
Tue 05:47:42 PM 39.4800 -93.2770 81° East 453 521 37,000  Level FlightAware ADS-B
Tue 05:48:22 PM 39.4940 -93.1610 81° East 452 520 37,000  Level FlightAware ADS-B
Tue 05:49:07 PM 39.5080 -93.0420 81° East 451 519 37,000  Level FlightAware ADS-B
Tue 05:49:47 PM 39.5200 -92.9400 81° East 451 519 37,000  Level FlightAware ADS-B
Tue 05:50:27 PM 39.5320 -92.8370 81° East 449 517 37,000  Level FlightAware ADS-B
Tue 05:51:12 PM 39.5460 -92.7080 82° East 449 517 37,000  Level FlightAware ADS-B
Tue 05:52:02 PM 39.5610 -92.5840 81° East 448 516 37,000  Level FlightAware ADS-B
Tue 05:52:52 PM 39.5760 -92.4500 82° East 448 516 37,000  Level FlightAware ADS-B
Tue 05:53:47 PM 39.5920 -92.3020 82° East 447 514 37,000  Level FlightAware ADS-B
Tue 05:54:17 PM 39.6010 -92.2240 81° East 447 514 37,000  Level FlightAware ADS-B
Tue 05:54:57 PM 39.6130 -92.1130 82° East 447 514 37,000  Level FlightAware ADS-B
Tue 05:55:37 PM 39.6240 -92.0130 82° East 447 514 37,000  Level FlightAware ADS-B
Tue 05:56:22 PM 39.6370 -91.8900 82° East 447 514 37,000  Level FlightAware ADS-B
Tue 05:57:02 PM 39.6480 -91.7870 82° East 447 514 37,000  Level FlightAware ADS-B
Tue 05:57:42 PM 39.6600 -91.6790 82° East 447 514 37,000  Level FlightAware ADS-B
Tue 05:58:22 PM 39.6700 -91.5840 82° East 447 514 37,000  Level FlightAware ADS-B
Tue 05:59:02 PM 39.6800 -91.4930 82° East 447 514 37,000  Level FlightAware ADS-B
Tue 05:59:52 PM 39.6960 -91.3330 83° East 446 513 37,000  Level FlightAware ADS-B
Tue 06:00:32 PM 39.7060 -91.2290 83° East 447 514 37,000  Level FlightAware ADS-B
Tue 06:01:07 PM 39.7160 -91.1360 82° East 448 516 37,000  Level FlightAware ADS-B
Tue 06:02:12 PM 39.7330 -90.9600 83° East 449 517 37,000  Level FlightAware ADS-B
Tue 06:02:52 PM 39.7440 -90.8570 82° East 450 518 37,000  Level FlightAware ADS-B
Tue 06:03:32 PM 39.7540 -90.7520 83° East 449 517 37,000  Level FlightAware ADS-B
Tue 06:04:22 PM 39.7680 -90.6070 83° East 450 518 37,000  Level FlightAware ADS-B
Tue 06:05:02 PM 39.7780 -90.5030 83° East 450 518 37,000  Level FlightAware ADS-B
Tue 06:05:42 PM 39.7880 -90.3950 83° East 450 518 37,000  Level FlightAware ADS-B
Tue 06:06:27 PM 39.8000 -90.2720 83° East 451 519 37,000  Level FlightAware ADS-B
Tue 06:07:07 PM 39.8080 -90.1760 84° East 451 519 37,000  Level FlightAware ADS-B
Tue 06:07:47 PM 39.8190 -90.0600 83° East 453 521 37,000  Level FlightAware ADS-B
Tue 06:08:32 PM 39.8300 -89.9440 83° East 454 522 37,000  Level FlightAware ADS-B
Tue 06:09:07 PM 39.8390 -89.8440 83° East 453 521 37,000  Level FlightAware ADS-B
Tue 06:09:52 PM 39.8490 -89.7220 84° East 455 524 37,000  Level FlightAware ADS-B
Tue 06:10:37 PM 39.8540 -89.5980 87° East 455 524 37,000  Level FlightAware ADS-B
Tue 06:11:22 PM 39.8550 -89.4770 89° East 455 524 37,000  Level FlightAware ADS-B
Tue 06:11:57 PM 39.8550 -89.3770 90° East 455 524 37,000  Level FlightAware ADS-B
Tue 06:12:42 PM 39.8560 -89.2580 89° East 455 524 37,000  Level FlightAware ADS-B
Tue 06:13:22 PM 39.8570 -89.1440 89° East 455 524 37,000  Level FlightAware ADS-B
Tue 06:14:02 PM 39.8570 -89.0370 90° East 454 522 37,000  Level FlightAware ADS-B
Tue 06:14:52 PM 39.8570 -88.9070 90° East 453 521 37,000  Level FlightAware ADS-B
Tue 06:15:32 PM 39.8570 -88.7950 90° East 452 520 37,000  Level FlightAware ADS-B
Tue 06:16:12 PM 39.8660 -88.6840 84° East 449 517 37,000 424 Level FlightAware ADS-B
Tue 06:16:57 PM 39.8810 -88.5670 80° East 444 511 37,600 847 Climbing FlightAware ADS-B
Tue 06:17:37 PM 39.8940 -88.4630 81° East 448 516 38,200 847 Climbing FlightAware ADS-B
Tue 06:18:22 PM 39.9090 -88.3510 80° East 450 518 38,800 565 Climbing FlightAware ADS-B
Tue 06:19:02 PM 39.9240 -88.2330 81° East 451 519 39,000 126 Climbing FlightAware ADS-B
Tue 06:19:57 PM 39.9420 -88.0920 81° East 447 514 39,000  Level FlightAware ADS-B
Tue 06:20:37 PM 39.9560 -87.9830 80° East 445 512 39,000  Level FlightAware ADS-B
Tue 06:21:22 PM 39.9710 -87.8620 81° East 446 513 39,000  Level FlightAware ADS-B
Tue 06:22:02 PM 39.9840 -87.7580 81° East 446 513 39,000  Level FlightAware ADS-B
Tue 06:22:42 PM 39.9970 -87.6520 81° East 446 513 39,000  Level FlightAware ADS-B
Tue 06:23:27 PM 40.0120 -87.5290 81° East 447 514 39,000  Level FlightAware ADS-B
Tue 06:24:12 PM 40.0270 -87.4120 80° East 447 514 39,000  Level FlightAware ADS-B
Tue 06:24:52 PM 40.0400 -87.3030 81° East 448 516 39,000  Level FlightAware ADS-B
Tue 06:25:32 PM 40.0520 -87.2020 81° East 448 516 39,000  Level FlightAware ADS-B
Tue 06:26:17 PM 40.0660 -87.0790 82° East 449 517 39,000  Level FlightAware ADS-B
Tue 06:26:57 PM 40.0780 -86.9780 81° East 449 517 39,000  Level FlightAware ADS-B
Tue 06:27:42 PM 40.0930 -86.8520 81° East 450 518 39,000  Level FlightAware ADS-B
Tue 06:28:22 PM 40.1060 -86.7400 81° East 451 519 39,000  Level FlightAware ADS-B
Tue 06:29:02 PM 40.1170 -86.6390 82° East 451 519 39,000  Level FlightAware ADS-B
Tue 06:29:42 PM 40.1290 -86.5370 81° East 452 520 39,000  Level FlightAware ADS-B
Tue 06:30:27 PM 40.1430 -86.4090 82° East 453 521 39,000  Level FlightAware ADS-B
Tue 06:31:12 PM 40.1570 -86.2860 81° East 453 521 39,000  Level FlightAware ADS-B
Tue 06:31:52 PM 40.1680 -86.1810 82° East 453 521 39,000  Level FlightAware ADS-B
Tue 06:32:32 PM 40.1810 -86.0670 81° East 452 520 39,000  Level FlightAware ADS-B
Tue 06:33:17 PM 40.1940 -85.9460 82° East 451 519 39,000  Level FlightAware ADS-B
Tue 06:33:57 PM 40.2050 -85.8410 82° East 449 517 39,000  Level FlightAware ADS-B
Tue 06:34:32 PM 40.2140 -85.7540 82° East 447 514 39,000  Level FlightAware ADS-B
Tue 06:35:17 PM 40.2260 -85.6420 82° East 447 514 39,000  Level FlightAware ADS-B
Tue 06:36:02 PM 40.2400 -85.5070 82° East 444 511 39,000  Level FlightAware ADS-B
Tue 06:36:47 PM 40.2560 -85.3870 80° East 440 506 39,000  Level FlightAware ADS-B
Tue 06:37:27 PM 40.2820 -85.2960 69° East 436 502 39,000  Level FlightAware ADS-B
Tue 06:38:12 PM 40.3220 -85.1800 66° East 435 501 39,000  Level FlightAware ADS-B
Tue 06:38:52 PM 40.3560 -85.0840 65° Northeast 434 499 39,000  Level FlightAware ADS-B
Tue 06:39:32 PM 40.3880 -84.9880 66° East 435 501 39,000  Level FlightAware ADS-B
Tue 06:40:17 PM 40.4250 -84.8820 65° Northeast 435 501 39,000  Level FlightAware ADS-B
Tue 06:40:57 PM 40.4580 -84.7850 66° East 435 501 39,000  Level FlightAware ADS-B
Tue 06:41:42 PM 40.4950 -84.6770 66° East 436 502 39,000  Level FlightAware ADS-B
Tue 06:42:22 PM 40.5270 -84.5790 67° East 437 503 39,000  Level FlightAware ADS-B
Tue 06:43:02 PM 40.5600 -84.4820 66° East 438 504 39,000  Level FlightAware ADS-B
Tue 06:43:47 PM 40.5970 -84.3730 66° East 440 506 39,000  Level FlightAware ADS-B
Tue 06:44:27 PM 40.6300 -84.2740 66° East 441 507 39,000  Level FlightAware ADS-B
Tue 06:45:12 PM 40.6670 -84.1630 66° East 442 509 39,000  Level FlightAware ADS-B
Tue 06:45:52 PM 40.7000 -84.0640 66° East 444 511 39,000  Level FlightAware ADS-B
Tue 06:46:32 PM 40.7320 -83.9660 67° East 446 513 39,000  Level FlightAware ADS-B
Tue 06:47:17 PM 40.7690 -83.8550 66° East 446 513 39,000  Level FlightAware ADS-B
Tue 06:47:57 PM 40.8020 -83.7540 67° East 448 516 39,000  Level FlightAware ADS-B
Tue 06:48:42 PM 40.8380 -83.6440 67° East 450 518 39,000  Level FlightAware ADS-B
Tue 06:49:22 PM 40.8720 -83.5380 67° East 451 519 39,000  Level FlightAware ADS-B
Tue 06:50:02 PM 40.9050 -83.4370 67° East 454 522 39,000  Level FlightAware ADS-B
Tue 06:50:42 PM 40.9370 -83.3390 67° East 455 524 39,000  Level FlightAware ADS-B
Tue 06:51:27 PM 40.9760 -83.2190 67° East 456 525 39,000  Level FlightAware ADS-B
Tue 06:52:12 PM 41.0100 -83.1120 67° East 457 526 39,000  Level FlightAware ADS-B
Tue 06:52:52 PM 41.0460 -83.0020 67° East 458 527 39,000  Level FlightAware ADS-B
Tue 06:53:32 PM 41.0770 -82.9050 67° East 458 527 39,000  Level FlightAware ADS-B
Tue 06:54:17 PM 41.1160 -82.7800 67° East 458 527 39,000  Level FlightAware ADS-B
Tue 06:54:57 PM 41.1490 -82.6780 67° East 459 528 39,000  Level FlightAware ADS-B
Tue 06:55:42 PM 41.1850 -82.5620 68° East 458 527 39,000  Level FlightAware ADS-B
Tue 06:56:22 PM 41.2170 -82.4590 68° East 459 528 39,000  Level FlightAware ADS-B
Tue 06:57:02 PM 41.2500 -82.3580 66° East 457 526 39,000  Level FlightAware ADS-B
Tue 06:57:47 PM 41.2870 -82.2360 68° East 453 521 39,000  Level FlightAware ADS-B
Tue 06:58:27 PM 41.3180 -82.1400 67° East 448 516 39,000  Level FlightAware ADS-B
Tue 06:59:07 PM 41.3490 -82.0370 68° East 444 511 39,000  Level FlightAware ADS-B
Tue 06:59:52 PM 41.3840 -81.9230 68° East 438 504 39,000  Level FlightAware ADS-B
Tue 07:00:32 PM 41.4150 -81.8240 67° East 434 499 39,000  Level FlightAware ADS-B
Tue 07:01:17 PM 41.4480 -81.7150 68° East 430 495 39,000  Level FlightAware ADS-B
Tue 07:01:57 PM 41.4790 -81.6160 67° East 428 493 39,000  Level FlightAware ADS-B
Tue 07:02:42 PM 41.5120 -81.5070 68° East 426 490 39,000  Level FlightAware ADS-B
Tue 07:03:22 PM 41.5420 -81.4080 68° East 425 489 39,000  Level FlightAware ADS-B
Tue 07:04:02 PM 41.5720 -81.3100 68° East 427 491 39,000  Level FlightAware ADS-B
Tue 07:04:47 PM 41.6040 -81.2030 68° East 428 493 39,000  Level FlightAware ADS-B
Tue 07:05:27 PM 41.6350 -81.1010 68° East 429 494 39,000  Level FlightAware ADS-B
Tue 07:06:07 PM 41.6630 -81.0070 68° East 430 495 39,000  Level FlightAware ADS-B
Tue 07:06:52 PM 41.6970 -80.8920 68° East 431 496 39,000  Level FlightAware ADS-B
Tue 07:07:32 PM 41.7260 -80.7930 69° East 432 497 39,000  Level FlightAware ADS-B
Tue 07:08:17 PM 41.7600 -80.6790 68° East 432 497 39,000  Level FlightAware ADS-B
Tue 07:08:57 PM 41.7890 -80.5820 68° East 432 497 39,000  Level FlightAware ADS-B
Tue 07:09:37 PM 41.8180 -80.4810 69° East 433 498 39,000  Level FlightAware ADS-B
Tue 07:10:22 PM 41.8500 -80.3710 69° East 433 498 39,000  Level FlightAware ADS-B
Tue 07:11:02 PM 41.8790 -80.2710 69° East 432 497 39,000  Level FlightAware ADS-B
Tue 07:11:47 PM 41.9130 -80.1550 68° East 432 497 39,000  Level FlightAware ADS-B
Tue 07:12:27 PM 41.9410 -80.0570 69° East 431 496 39,000  Level FlightAware ADS-B
Tue 07:13:12 PM 41.9760 -79.9490 66° East 428 493 39,000  Level FlightAware ADS-B
Tue 07:13:52 PM 42.0250 -79.8680 51° Northeast 425 489 39,000  Level FlightAware ADS-B
Tue 07:14:47 PM 42.0960 -79.7570 49° Northeast 426 490 39,000 -180 Level FlightAware ADS-B
Tue 07:15:32 PM 42.1520 -79.6610 52° Northeast 423 487 38,700 -776 Descending FlightAware ADS-B
Tue 07:16:12 PM 42.1640 -79.5610 81° East 440 506 37,900 -1,200 Descending FlightAware ADS-B
Tue 07:16:52 PM 42.1490 -79.4530 101° East 439 505 37,100 -675 Descending FlightAware ADS-B
Tue 07:17:32 PM 42.1350 -79.3660 102° East 433 498 37,000 -75 Descending FlightAware ADS-B
Tue 07:18:12 PM 42.1170 -79.2570 103° East 429 494 37,000  Level FlightAware ADS-B
Tue 07:18:57 PM 42.0990 -79.1400 102° East 439 505 37,000  Level FlightAware ADS-B
Tue 07:19:42 PM 42.0810 -79.0270 102° East 455 524 37,000  Level FlightAware ADS-B
Tue 07:20:17 PM 42.0640 -78.9210 102° East 458 527 37,000  Level FlightAware ADS-B
Tue 07:21:07 PM 42.0410 -78.7820 103° East 455 524 37,000  Level FlightAware ADS-B
Tue 07:21:47 PM 42.0210 -78.6620 103° East 451 519 37,000  Level FlightAware ADS-B
Tue 07:22:32 PM 42.0010 -78.5410 103° East 448 516 37,000  Level FlightAware ADS-B
Tue 07:23:12 PM 41.9830 -78.4310 102° East 447 514 37,000  Level FlightAware ADS-B
Tue 07:23:52 PM 41.9660 -78.3290 103° East 446 513 37,000  Level FlightAware ADS-B
Tue 07:24:37 PM 41.9450 -78.2020 102° East 447 514 37,000  Level FlightAware ADS-B
Tue 07:25:17 PM 41.9280 -78.1010 103° East 446 513 37,000  Level FlightAware ADS-B
Tue 07:25:57 PM 41.9090 -77.9900 103° East 445 512 37,000  Level FlightAware ADS-B
Tue 07:26:42 PM 41.8880 -77.8710 103° East 447 514 37,000  Level FlightAware ADS-B
Tue 07:27:22 PM 41.8610 -77.7580 108° East 451 519 37,000  Level FlightAware ADS-B
Tue 07:28:07 PM 41.8330 -77.6510 109° East 453 521 37,000  Level FlightAware ADS-B
Tue 07:28:42 PM 41.8060 -77.5490 110° East 454 522 37,000  Level FlightAware ADS-B
Tue 07:29:27 PM 41.7740 -77.4290 110° East 454 522 37,000  Level FlightAware ADS-B
Tue 07:30:12 PM 41.7440 -77.3170 110° East 456 525 37,000  Level FlightAware ADS-B
Tue 07:30:52 PM 41.7140 -77.2040 110° East 460 529 37,000  Level FlightAware ADS-B
Tue 07:31:37 PM 41.6810 -77.0830 110° East 464 534 37,000  Level FlightAware ADS-B
Tue 07:32:17 PM 41.6540 -76.9820 110° East 466 536 37,000  Level FlightAware ADS-B
Tue 07:32:55 PM 41.6202 -76.8585 110° East 464 534 37,000  Level FlightAware ADS-B
Tue 07:33:41 PM 41.5865 -76.7347 110° East 462 532 37,000  Level FlightAware ADS-B
Tue 07:34:12 PM 41.5638 -76.6527 110° East 461 531 37,000  Level FlightAware ADS-B
Tue 07:34:44 PM 41.5403 -76.5670 110° East 454 522 37,000  Level FlightAware ADS-B
Tue 07:35:17 PM 41.5171 -76.4829 110° East 451 519 37,000  Level FlightAware ADS-B
Tue 07:35:47 PM 41.4954 -76.4039 110° East 451 519 37,000 -194 Level FlightAware ADS-B
Tue 07:36:19 PM 41.4716 -76.3188 110° East 452 520 36,800 -1,130 Descending FlightAware ADS-B
Tue 07:36:56 PM 41.4445 -76.2223 111° Southeast 454 522 35,700 -2,029 Descending FlightAware ADS-B
Tue 07:37:27 PM 41.4222 -76.1428 110° East 458 527 34,500 -2,462 Descending FlightAware ADS-B
Tue 07:38:14 PM 41.3870 -76.0172 110° East 463 533 32,500 -2,538 Descending FlightAware ADS-B
Tue 07:38:45 PM 41.3637 -75.9346 111° Southeast 469 540 31,200 -2,585 Descending FlightAware ADS-B
Tue 07:39:19 PM 41.3376 -75.8426 111° Southeast 472 543 29,700 -2,400 Descending FlightAware ADS-B
Tue 07:39:50 PM 41.3136 -75.7585 111° Southeast 467 537 28,600 -2,066 Descending FlightAware ADS-B
Tue 07:40:20 PM 41.2899 -75.6785 111° Southeast 461 531 27,600 -1,967 Descending FlightAware ADS-B
Tue 07:40:51 PM 41.2645 -75.6000 113° Southeast 454 522 26,600 -1,905 Descending FlightAware ADS-B
Tue 07:41:23 PM 41.2374 -75.5192 114° Southeast 448 516 25,600 -1,935 Descending FlightAware ADS-B
Tue 07:41:53 PM 41.2118 -75.4437 114° Southeast 440 506 24,600 -1,969 Descending FlightAware ADS-B
Tue 07:42:27 PM 41.1838 -75.3606 114° Southeast 434 499 23,500 -1,477 Descending FlightAware ADS-B
Tue 07:42:58 PM 41.1591 -75.2872 114° Southeast 419 482 23,000 -469 Descending FlightAware ADS-B
Tue 07:43:31 PM 41.1333 -75.2111 114° Southeast 391 450 23,000  Level FlightAware ADS-B
Tue 07:44:05 PM 41.1091 -75.1403 114° Southeast 370 426 23,000  Level FlightAware ADS-B
Tue 07:44:35 PM 41.0878 -75.0778 114° Southeast 364 419 23,000  Level FlightAware ADS-B
Tue 07:45:06 PM 41.0664 -75.0152 114° Southeast 365 420 23,000  Level FlightAware ADS-B
Tue 07:45:36 PM 41.0454 -74.9541 114° Southeast 367 422 23,000  Level FlightAware ADS-B
Tue 07:46:06 PM 41.0248 -74.8937 114° Southeast 365 420 23,000  Level FlightAware ADS-B
Tue 07:46:24 PM 41.0145 -74.8550 109° East 363 418 23,000  Level FlightAware ADS-B
Tue 07:46:33 PM 41.0111 -74.8356 103° East 363 418 23,000  Level FlightAware ADS-B
Tue 07:46:37 PM 41.0099 -74.8274 101° East 363 418 23,000  Level FlightAware ADS-B
Tue 07:47:07 PM 41.0020 -74.7615 99° East 361 415 23,000 -588 Level FlightAware ADS-B
Tue 07:47:28 PM 40.9977 -74.7163 97° East 361 415 22,500 -1,371 Descending FlightAware ADS-B
Tue 07:47:42 PM 40.9991 -74.6854 87° East 356 410 22,200 -1,263 Descending FlightAware ADS-B
Tue 07:47:47 PM 41.0010 -74.6749 77° East 354 407 22,100 -1,125 Descending FlightAware ADS-B
Tue 07:47:58 PM 41.0077 -74.6521 69° East 354 407 21,900 -857 Descending FlightAware ADS-B
Tue 07:48:01 PM 41.0099 -74.6465 62° Northeast 347 399 21,900 -882 Level FlightAware ADS-B
Tue 07:48:32 PM 41.0343 -74.5922 59° Northeast 338 389 21,400 -931 Descending FlightAware ADS-B
Tue 07:48:59 PM 41.0559 -74.5445 59° Northeast 329 379 21,000 -1,077 Descending FlightAware ADS-B
Tue 07:49:11 PM 41.0631 -74.5229 66° East 330 380 20,700 -1,412 Descending FlightAware ADS-B
Tue 07:49:16 PM 41.0652 -74.5126 75° East 331 381 20,600 -1,600 Descending FlightAware ADS-B
Tue 07:49:26 PM 41.0667 -74.4928 84° East 335 386 20,300 -2,000 Descending FlightAware ADS-B
Tue 07:49:31 PM 41.0662 -74.4820 94° East 339 390 20,100 -1,846 Descending FlightAware ADS-B
Tue 07:49:39 PM 41.0636 -74.4648 101° East 344 396 19,900 -1,125 Descending FlightAware ADS-B
Tue 07:49:47 PM 41.0588 -74.4492 112° Southeast 346 398 19,800 -774 Descending FlightAware ADS-B
Tue 07:50:10 PM 41.0429 -74.4073 117° Southeast 345 397 19,500 -792 Descending FlightAware ADS-B
Tue 07:50:40 PM 41.0202 -74.3503 118° Southeast 343 395 19,100 -462 Descending FlightAware ADS-B
Tue 07:51:15 PM 40.9948 -74.2872 118° Southeast 338 389 19,000 -91 Descending FlightAware ADS-B
Tue 07:51:46 PM 40.9716 -74.2298 118° Southeast 343 395 19,000  Level FlightAware ADS-B
Tue 07:51:56 PM 40.9642 -74.2118 119° Southeast 343 395 19,000  Level FlightAware ADS-B
Tue 07:52:18 PM 40.9474 -74.1714 119° Southeast 342 394 19,000 -316 Level FlightAware ADS-B
Tue 07:52:34 PM 40.9349 -74.1414 119° Southeast 342 394 18,800 -909 Descending FlightAware ADS-B
Tue 07:52:51 PM 40.9222 -74.1109 119° Southeast 341 392 18,500 -968 Descending FlightAware ADS-B
Tue 07:53:05 PM 40.9120 -74.0860 118° Southeast 339 390 18,300 -1,161 Descending FlightAware ADS-B
Tue 07:53:22 PM 40.8990 -74.0544 119° Southeast 338 389 17,900 -1,400 Descending FlightAware ADS-B
Tue 07:53:35 PM 40.8891 -74.0302 118° Southeast 336 387 17,600 -1,400 Descending FlightAware ADS-B
Tue 07:53:52 PM 40.8763 -73.9993 119° Southeast 335 386 17,200 -1,355 Descending FlightAware ADS-B
Tue 07:54:06 PM 40.8661 -73.9748 119° Southeast 333 383 16,900 -1,412 Descending FlightAware ADS-B
Tue 07:54:26 PM 40.8520 -73.9409 119° Southeast 328 377 16,400 -1,455 Descending FlightAware ADS-B
Tue 07:54:39 PM 40.8425 -73.9183 119° Southeast 324 373 16,100 -1,548 Descending FlightAware ADS-B
Tue 07:54:57 PM 40.8293 -73.8864 119° Southeast 319 367 15,600 -1,714 Descending FlightAware ADS-B
Tue 07:55:28 PM 40.8080 -73.8338 118° Southeast 314 361 14,700 -1,754 Descending FlightAware ADS-B
Tue 07:56:02 PM 40.7853 -73.7773 118° Southeast 311 358 13,700 -1,548 Descending FlightAware ADS-B
Tue 07:56:06 PM 40.7823 -73.7693 116° Southeast 13,600 -1,286 Descending FlightAware ADS-B
Tue 07:56:30 PM 40.7666 -73.7301 118° Southeast 310 357 13,100 -909 Descending FlightAware ADS-B
Tue 07:57:12 PM 40.7318 -73.6665 126° Southeast 309 356 12,600 -337 Descending FlightAware ADS-B
Tue 07:57:59 PM 40.6913 -73.5974 128° Southeast 302 348 12,600  Level FlightAware ADS-B
Tue 07:58:30 PM 40.6652 -73.5523 127° Southeast 304 350 12,600  Level FlightAware ADS-B
Tue 07:58:49 PM 40.6482 -73.5243 129° Southeast 303 349 12,600 -429 Level FlightAware ADS-B
Tue 07:58:58 PM 40.6384 -73.5138 141° Southeast 302 348 12,400 -1,500 Descending FlightAware ADS-B
Tue 07:59:09 PM 40.6256 -73.5059 155° Southeast 299 344 12,100 -1,895 Descending FlightAware ADS-B
Tue 07:59:17 PM 40.6140 -73.5017 165° South 298 343 11,800 -2,526 Descending FlightAware ADS-B
Tue 07:59:28 PM 40.6000 -73.4980 169° South 298 343 11,300 -2,471 Descending FlightAware ADS-B
Tue 07:59:34 PM 40.5910 -73.4979 180° South 298 343 11,100 -2,333 Descending FlightAware ADS-B
Tue 07:59:46 PM 40.5748 -73.5020 191° South 296 341 10,600 -2,600 Descending FlightAware ADS-B
Tue 08:00:04 PM 40.5514 -73.5111 196° South 296 341 9,800 -2,471 Descending FlightAware ADS-B
Tue 08:00:20 PM 40.5310 -73.5193 197° South 295 339 9,200 -2,129 Descending FlightAware ADS-B
Tue 08:00:35 PM 40.5109 -73.5276 197° South 295 339 8,700 -2,250 Descending FlightAware ADS-B
Tue 08:00:52 PM 40.4884 -73.5370 198° South 292 336 8,000 -2,000 Descending FlightAware ADS-B
Tue 08:01:14 PM 40.4614 -73.5480 197° South 288 331 7,400 -1,459 Descending FlightAware ADS-B
Tue 08:01:29 PM 40.4422 -73.5557 197° South 285 328 7,100 -1,333 Descending FlightAware ADS-B
Tue 08:01:41 PM 40.4275 -73.5633 201° Southwest 285 328 6,800 -1,500 Descending FlightAware ADS-B
Tue 08:01:45 PM 40.4227 -73.5672 212° Southwest 284 327 6,700 -1,800 Descending FlightAware ADS-B
Tue 08:01:51 PM 40.4170 -73.5737 221° Southwest 284 327 6,500 -1,636 Descending FlightAware ADS-B
Tue 08:01:56 PM 40.4125 -73.5809 231° Southwest 283 326 6,400 -1,500 Descending FlightAware ADS-B
Tue 08:02:03 PM 40.4082 -73.5916 242° Southwest 283 326 6,200 -1,385 Descending FlightAware ADS-B
Tue 08:02:09 PM 40.4058 -73.5999 249° West 281 323 6,100 -1,429 Descending FlightAware ADS-B
Tue 08:02:24 PM 40.4010 -73.6257 256° West 281 323 5,700 -1,400 Descending FlightAware ADS-B
Tue 08:02:39 PM 40.3965 -73.6508 257° West 281 323 5,400 -1,355 Descending FlightAware ADS-B
Tue 08:02:55 PM 40.3917 -73.6766 256° West 281 323 5,000 -1,538 Descending FlightAware ADS-B
Tue 08:03:18 PM 40.3847 -73.7147 256° West 280 322 4,400 -1,543 Descending FlightAware ADS-B
Tue 08:03:30 PM 40.3811 -73.7344 257° West 280 322 4,100 -1,273 Descending FlightAware ADS-B
Tue 08:03:51 PM 40.3744 -73.7686 256° West 278 320 3,700 -698 Descending FlightAware ADS-B
Tue 08:04:13 PM 40.3677 -73.8038 256° West 266 306 3,600 -154 Descending FlightAware ADS-B
Tue 08:04:30 PM 40.3629 -73.8297 256° West 250 288 3,600  Level FlightAware ADS-B
Tue 08:04:45 PM 40.3590 -73.8513 257° West 236 272 3,600  Level FlightAware ADS-B
Tue 08:05:00 PM 40.3553 -73.8710 256° West 217 250 3,600  Level FlightAware ADS-B
Tue 08:05:15 PM 40.3519 -73.8898 257° West 204 235 3,600  Level FlightAware ADS-B
Tue 08:05:28 PM 40.3505 -73.9047 263° West 191 220 3,600  Level FlightAware ADS-B
Tue 08:05:33 PM 40.3514 -73.9100 283° West 188 216 3,600  Level FlightAware ADS-B
Tue 08:05:36 PM 40.3523 -73.9135 289° West 187 215 3,600 500 Level FlightAware ADS-B
Tue 08:05:45 PM 40.3552 -73.9225 293° West 186 214 3,700  Climbing FlightAware ADS-B
Tue 08:05:57 PM 40.3595 -73.9347 295° West 186 214 3,600 -273 Descending FlightAware ADS-B
Tue 08:06:07 PM 40.3624 -73.9459 289° West 181 208 3,600  Level FlightAware ADS-B
Tue 08:06:32 PM 40.3677 -73.9720 285° West 181 208 3,600  Level FlightAware ADS-B
Tue 08:06:49 PM 40.3715 -73.9899 286° West 181 208 3,600  Level FlightAware ADS-B
Tue 08:07:08 PM 40.3756 -74.0098 285° West 180 207 3,600  Level FlightAware ADS-B
Tue 08:07:13 PM 40.3770 -74.0149 290° West 180 207 3,600  Level FlightAware ADS-B
Tue 08:07:17 PM 40.3783 -74.0192 292° West 180 207 3,600  Level FlightAware ADS-B
Tue 08:07:24 PM 40.3819 -74.0250 309° West 174 200 3,600  Level FlightAware ADS-B
Tue 08:07:31 PM 40.3864 -74.0285 329° Northwest 171 197 3,600  Level FlightAware ADS-B
Tue 08:07:34 PM 40.3887 -74.0295 342° North 169 194 3,600  Level FlightAware ADS-B
Tue 08:07:37 PM 40.3914 -74.0302 349° North 167 192 3,600 545 Level FlightAware ADS-B
Tue 08:07:45 PM 40.3971 -74.0311 353° North 160 184 3,700  Climbing FlightAware ADS-B
Tue 08:07:51 PM 40.4012 -74.0312 359° North 156 180 3,600 -600 Descending FlightAware ADS-B
Tue 08:07:55 PM 40.4045 -74.0311 North 154 177 3,600 -667 Level FlightAware ADS-B
Tue 08:08:00 PM 40.4077 -74.0306 North 153 176 3,500 -923 Descending FlightAware ADS-B
Tue 08:08:08 PM 40.4135 -74.0290 12° North 152 175 3,400 -1,000 Descending FlightAware ADS-B
Tue 08:08:12 PM 40.4163 -74.0281 14° North 153 176 3,300 -1,000 Descending FlightAware ADS-B
Tue 08:08:20 PM 40.4216 -74.0259 18° North 154 177 3,200 -706 Descending FlightAware ADS-B
Tue 08:08:29 PM 40.4282 -74.0228 20° North 153 176 3,100 -960 Descending FlightAware ADS-B
Tue 08:08:45 PM 40.4379 -74.0170 24° Northeast 153 176 2,800 -500 Descending FlightAware ADS-B
Tue 08:09:17 PM 40.4590 -74.0040 25° Northeast 161 185 2,700 -143 Descending FlightAware ADS-B
Tue 08:09:27 PM 40.4654 -73.9991 30° Northeast 161 185 2,700  Level FlightAware ADS-B
Tue 08:09:48 PM 40.4796 -73.9892 28° Northeast 162 186 2,700  Level FlightAware ADS-B
Tue 08:10:47 PM 40.5140 -73.9630 30° Northeast 158 182 2,700 -71 Level FlightAware ADS-B
Tue 08:11:12 PM 40.5320 -73.9500 29° Northeast 160 184 2,600 -480 Descending FlightAware ADS-B
Tue 08:11:37 PM 40.5470 -73.9370 33° Northeast 159 183 2,300 -600 Descending FlightAware ADS-B
Tue 08:12:12 PM 40.5690 -73.9190 32° Northeast 158 182 2,000 -600 Descending FlightAware ADS-B
Tue 08:12:37 PM 40.5860 -73.9050 32° Northeast 160 184 1,700 -655 Descending FlightAware ADS-B
Tue 08:13:07 PM 40.6050 -73.8900 31° Northeast 148 170 1,400 -545 Descending FlightAware ADS-B
Tue 08:13:32 PM 40.6170 -73.8800 32° Northeast 130 150 1,200 -327 Descending FlightAware ADS-B
Tue 08:14:02 PM 40.6330 -73.8670 32° Northeast 131 151 1,100 -400 Descending FlightAware ADS-B
Tue 08:14:17 PM 40.6420 -73.8610 27° Northeast 128 147 900 -750 Descending FlightAware ADS-B
Tue 08:14:42 PM 40.6550 -73.8520 28° Northeast 127 146 600 -545 Descending FlightAware ADS-B
Tue 08:15:12 PM 40.6670 -73.8370 43° Northeast 124 143 400 -267 Descending FlightAware ADS-B
Tue 08:15:27 PM 40.6720 -73.8270 57° Northeast 125 144 400 -200 Level FlightAware ADS-B
Tue 08:15:42 PM 40.6740 -73.8160 77° East 120 138 300 -400 Descending FlightAware ADS-B
Tue 08:16:22 PM 40.6710 -73.7880 98° East 121 139 -450 Descending FlightAware ADS-B
Tue 08:16:47 PM 40.6650 -73.7720 116° Southeast 123 142  Level FlightAware ADS-B

Login

Don't have an account? Register now (free) for customized features, flight alerts, and more!